createdAt,value
2018-04-06T15:16:41.447Z,52.90
2018-04-06T15:19:08.836Z,53.60
2018-04-06T15:21:35.561Z,53.60
2018-04-06T15:24:02.201Z,53.90
2018-04-06T15:26:29.048Z,54.10
2018-04-06T15:28:55.701Z,54.00
2018-04-06T15:31:22.346Z,53.80
2018-04-06T15:33:48.974Z,53.80
2018-04-06T15:36:15.624Z,53.60
2018-04-06T15:38:42.254Z,53.60
2018-04-06T15:41:09.743Z,53.50
2018-04-06T15:43:36.400Z,53.50
2018-04-06T15:46:03.789Z,53.40
2018-04-06T15:48:30.427Z,53.40
2018-04-06T15:50:57.113Z,52.90
2018-04-06T15:53:23.793Z,53.10
2018-04-06T15:55:50.416Z,53.10
2018-04-06T15:58:17.799Z,53.00
2018-04-06T16:00:44.513Z,53.00
2018-04-06T16:03:11.193Z,52.90
2018-04-06T16:05:38.649Z,52.70
2018-04-06T16:08:05.333Z,52.80
2018-04-06T16:10:32.828Z,53.40
2018-04-06T16:12:59.515Z,52.60
2018-04-06T16:15:26.414Z,52.80
2018-04-06T16:17:53.379Z,52.70
2018-04-06T16:20:20.135Z,52.80
2018-04-06T16:22:46.865Z,52.70
2018-04-06T16:25:13.659Z,52.60
2018-04-06T16:27:40.386Z,52.60
2018-04-06T16:30:07.120Z,52.60
2018-04-06T16:32:33.959Z,52.60
2018-04-06T16:35:01.334Z,52.40
2018-04-06T16:37:27.954Z,52.30
2018-04-06T16:39:55.352Z,52.20
2018-04-06T16:42:22.033Z,52.10
2018-04-06T16:44:49.386Z,52.10
2018-04-06T16:47:16.741Z,52.90
2018-04-06T16:49:44.098Z,52.10
2018-04-06T16:52:11.453Z,52.10
2018-04-06T16:54:38.813Z,52.00
2018-04-06T16:57:06.201Z,52.00
2018-04-06T16:59:32.818Z,52.00
2018-04-06T17:01:59.492Z,51.90
2018-04-06T17:04:26.222Z,51.80
2018-04-06T17:06:52.961Z,51.90
2018-04-06T17:09:19.587Z,51.70
2018-04-06T17:11:46.246Z,51.60
2018-04-06T17:14:12.879Z,51.30
2018-04-06T17:16:39.538Z,51.10
2018-04-06T17:19:06.198Z,50.90
2018-04-06T17:21:33.548Z,50.30
2018-04-06T17:24:00.913Z,50.10
2018-04-06T17:26:28.292Z,50.00
2018-04-06T17:28:54.925Z,50.00
2018-04-06T17:31:21.537Z,50.00
2018-04-06T17:33:48.899Z,49.70
2018-04-06T17:36:16.313Z,49.50
2018-04-06T17:38:42.986Z,49.50
2018-04-06T17:41:10.375Z,49.40
2018-04-06T17:43:37.107Z,49.40
2018-04-06T17:46:04.470Z,49.30
2018-04-06T17:48:31.105Z,49.20
2018-04-06T17:50:57.760Z,49.30
2018-04-06T17:53:24.378Z,49.40
2018-04-06T17:55:51.049Z,49.60
2018-04-06T17:58:17.683Z,49.60
2018-04-06T18:00:44.298Z,49.50
2018-04-06T18:03:10.918Z,49.50
2018-04-06T18:05:37.598Z,49.60
2018-04-06T18:08:04.246Z,49.60
2018-04-06T18:10:30.865Z,49.80
2018-04-06T18:12:57.485Z,49.90
2018-04-06T18:15:24.141Z,50.10
2018-04-06T18:17:50.758Z,50.20
2018-04-06T18:20:17.385Z,50.30
2018-04-06T18:22:44.086Z,50.40
2018-04-06T18:25:11.466Z,50.50
2018-04-06T18:27:38.168Z,50.50
2018-04-06T18:30:04.807Z,50.70
2018-04-06T18:32:32.173Z,50.80
2018-04-06T18:34:59.566Z,50.80
2018-04-06T18:37:26.193Z,50.80
2018-04-06T18:39:52.898Z,50.80
2018-04-06T18:42:20.296Z,50.50
2018-04-06T18:44:47.014Z,50.50
2018-04-06T18:47:14.432Z,50.80
2018-04-06T18:49:41.881Z,50.90
2018-04-06T18:52:08.596Z,50.90
2018-04-06T18:54:35.321Z,50.80
2018-04-06T18:57:02.029Z,51.70
2018-04-06T18:59:29.626Z,50.80
2018-04-06T19:01:56.440Z,50.80
2018-04-06T19:04:23.141Z,50.80
2018-04-06T19:06:49.823Z,50.60
2018-04-06T19:09:16.514Z,50.40
2018-04-06T19:11:43.212Z,50.10
2018-04-06T19:14:09.917Z,50.00
2018-04-06T19:16:37.363Z,50.10
2018-04-06T19:19:05.666Z,50.20
2018-04-06T19:21:32.369Z,50.20
2018-04-06T19:23:59.213Z,50.20
2018-04-06T19:26:26.681Z,50.50
2018-04-06T19:28:54.093Z,50.30
2018-04-06T19:31:20.781Z,50.30
2018-04-06T19:33:47.481Z,50.40
2018-04-06T19:36:14.226Z,50.20
2018-04-06T19:38:40.986Z,50.20
2018-04-06T19:41:08.428Z,50.30
2018-04-06T19:43:35.184Z,50.30
2018-04-06T19:46:02.613Z,50.40
2018-04-06T19:48:29.298Z,50.40
2018-04-06T19:50:55.987Z,50.30
2018-04-06T19:53:22.676Z,50.30
2018-04-06T19:55:49.386Z,50.40
2018-04-06T19:58:16.817Z,51.00
2018-04-06T20:00:43.581Z,50.40
2018-04-06T20:03:11.953Z,50.40
2018-04-06T20:05:53.721Z,50.30
2018-04-06T20:08:20.466Z,50.40
2018-04-06T20:10:47.333Z,50.40
2018-04-06T20:13:14.906Z,50.30
2018-04-06T20:15:42.306Z,50.10
2018-04-06T20:18:09.000Z,50.10
2018-04-06T20:20:36.373Z,49.90
2018-04-06T20:23:03.024Z,49.90
2018-04-06T20:25:29.648Z,49.90
2018-04-06T20:27:56.265Z,49.80
2018-04-06T20:30:23.633Z,49.60
2018-04-06T20:32:50.260Z,49.60
2018-04-06T20:35:17.754Z,49.10
2018-04-06T20:37:44.494Z,49.10
2018-04-06T20:40:11.133Z,48.80
2018-04-06T20:42:37.748Z,48.70
2018-04-06T20:45:04.366Z,48.70
2018-04-06T20:47:31.794Z,49.10
2018-04-06T20:49:58.433Z,48.30
2018-04-06T20:52:25.068Z,48.50
2018-04-06T20:54:53.174Z,48.50
2018-04-06T20:57:19.821Z,48.50
2018-04-06T20:59:46.481Z,48.60
2018-04-06T21:02:13.126Z,48.50
2018-04-06T21:04:39.746Z,48.50
2018-04-06T21:07:06.387Z,48.60
2018-04-06T21:09:33.033Z,48.80
2018-04-06T21:11:59.663Z,48.60
2018-04-06T21:14:26.341Z,48.90
2018-04-06T21:16:53.024Z,49.20
2018-04-06T21:19:19.716Z,49.50
2018-04-06T21:21:46.465Z,49.70
2018-04-06T21:24:13.906Z,49.70
2018-04-06T21:26:40.669Z,49.70
2018-04-06T21:29:08.080Z,49.60
2018-04-06T21:31:34.826Z,49.60
2018-04-06T21:34:01.506Z,49.50
2018-04-06T21:36:28.941Z,49.40
2018-04-06T21:38:55.615Z,49.40
2018-04-06T21:41:22.327Z,49.50
2018-04-06T21:43:49.836Z,49.80
2018-04-06T21:46:16.575Z,49.70
2018-04-06T21:48:43.273Z,49.80
2018-04-06T21:51:10.729Z,49.90
2018-04-06T21:53:37.468Z,49.90
2018-04-06T21:56:04.947Z,50.40
2018-04-06T21:58:31.660Z,49.70
2018-04-06T22:00:59.120Z,49.80
2018-04-06T22:03:26.617Z,49.70
2018-04-06T22:05:53.403Z,49.70
2018-04-06T22:08:20.846Z,49.70
2018-04-06T22:10:47.578Z,49.70
2018-04-06T22:13:15.080Z,49.50
2018-04-06T22:15:41.761Z,49.50
2018-04-06T22:18:08.483Z,49.50
2018-04-06T22:20:35.165Z,49.50
2018-04-06T22:23:01.911Z,49.50
2018-04-06T22:25:29.333Z,49.30
2018-04-06T22:27:56.160Z,49.30
2018-04-06T22:30:22.848Z,49.30
2018-04-06T22:32:50.283Z,49.10
2018-04-06T22:35:16.995Z,49.00
2018-04-06T22:37:43.693Z,49.60
2018-04-06T22:40:11.206Z,48.80
2018-04-06T22:42:37.936Z,48.80
2018-04-06T22:45:04.627Z,48.90
2018-04-06T22:47:32.126Z,48.60
2018-04-06T22:49:58.823Z,48.70
2018-04-06T22:52:26.226Z,48.80
2018-04-06T22:54:52.948Z,48.80
2018-04-06T22:57:19.621Z,48.80
2018-04-06T22:59:46.306Z,48.80
2018-04-06T23:02:12.996Z,49.50
2018-04-06T23:04:39.663Z,48.70
2018-04-06T23:07:07.126Z,48.60
2018-04-06T23:09:34.545Z,48.50
2018-04-06T23:12:01.221Z,48.50
2018-04-06T23:14:27.918Z,48.50
2018-04-06T23:16:54.587Z,48.50
2018-04-06T23:19:21.994Z,48.20
2018-04-06T23:21:48.679Z,48.30
2018-04-06T23:24:16.133Z,48.40
2018-04-06T23:26:43.566Z,48.50
2018-04-06T23:29:10.245Z,48.50
2018-04-06T23:31:36.925Z,48.50
2018-04-06T23:34:03.668Z,48.50
2018-04-06T23:36:30.365Z,48.60
2018-04-06T23:38:57.042Z,48.60
2018-04-06T23:41:23.705Z,48.60
2018-04-06T23:43:50.385Z,48.60
2018-04-06T23:46:17.092Z,48.50
2018-04-06T23:48:44.653Z,48.40
2018-04-06T23:51:12.063Z,48.50
2018-04-06T23:53:38.756Z,48.50
2018-04-06T23:56:06.169Z,48.30
2018-04-06T23:58:32.841Z,48.40
